North, SC (29112)

11:48 AM EST on December 06, 2016 (GMT -0500)
Foreback Place, North, SC | | Change Station

Elev 285 ft 33.64 °N, 81.15 °W | Updated 1 second ago

Overcast
Overcast
55.2 °F
Feels Like 55.2 °F
N
0.2
Wind Variable Wind from NNE
Gusts 2.5 mph

Today
High -- | Low -- °F
--% Chance of Precip.
Yesterday
High -- | Low -- °F
Precip. -- in
Pressure 29.76 in
Visibility 10.0 miles
Clouds Overcast 400 ft
Dew Point 50 °F
Humidity 81%
Rainfall 0.69 in
Snow Depth Not available.
7:15 AM 5:15 PM
Waxing Crescent, 43% visible
METAR KOGB 061553Z AUTO 00000KT 10SM OVC004 13/13 A2976 RMK AO2 RAE30 SLP076 P0004 T01330128
Pressure 29.76 in
Visibility 10.0 miles
Clouds Overcast 400 ft
Dew Point 50 °F
Humidity 81%
Rainfall 0.69 in
Snow Depth Not available.
7:15 AM 5:15 PM
Waxing Crescent, 43% visible
METAR KOGB 061553Z AUTO 00000KT 10SM OVC004 13/13 A2976 RMK AO2 RAE30 SLP076 P0004 T01330128

10-Day Weather Forecast

Almanac

Astronomy

Dec. 06, 2016 Rise Set
Actual Time
Civil Twilight
Nautical Twilight
Astronomical Twilight
Moon
Length of Visible Light
Length of Day
Tomorrow will be .
, % of the Moon is Illuminated

Today's Extremes

State Highs State Lows

Community

WunderPhotos

Upload Photos

1,955,983 photos uploaded!

WunderBlog® & News

Nearby

Air Quality

  Air Quality AQ Index Pollutant
Not available.

Snow Depth

Station Depth Elevation

Earthquake Activity

City Distance Mag. Time & Date
Minimum magnitude displayed is 2.5.

Coastal Water Temperatures

Place Temperature

Stations

Nearby Weather Stations

Station Location Temp. Windchill Dew Point Humidity Wind Precip. Elev Updated Type
                   

Watches & Warnings

There are currently no watches in effect.